Interclubs Poussins

Départementale

DECINES CHARPIEU

Le Dimanche 01 Decembre 2013

Bassin de 25m

100 4 Nages Dames

Séries

Nom Année Club Pays Temps Points Niv.
1 BENTZ Mandoline 2003 TRITON CLUB BELLEVILLE FRA 1:24:86 758
2 PONZETTO Nina 2003 AS CALUIRE FRA 1:27:95 685
3 GAVIGNET Malena 2003 PAYS VIENNOIS NATATION FRA 1:33:85 557
4 GAMEZ Bianca 2003 ND VILLEFRANCHE-EN-BEAUJOLAIS FRA 1:33:96 555
5 RICHAUD Mathilde 2003 LYON NATATION FRA 1:35:16 531
6 PIVET Clara 2003 TRITON CLUB BELLEVILLE FRA 1:35:64 521
7 CHERET Juliette 2003 LYON NATATION FRA 1:37:39 487
8 PHILIPPON Elizabeth 2003 EMS BRON FRA 1:37:41 487
9 PESTRE Soa 2003 TRITON CLUB BELLEVILLE FRA 1:38:10 473
10 COMTE Cristina 2003 LYON NATATION FRA 1:38:23 471
11 PELLARIN Alice 2003 RILLIEUX NATATION FRA 1:38:85 459
12 DUCHENES Marion 2003 EMS BRON FRA 1:40:95 421
13 LEMAN Charlotte 2003 AC DÉCINES FRA 1:41:12 418
14 LAVAL Morgane 2004 LYON NATATION FRA 1:41:17 417
15 SZYBOWSKI Alexandra 2003 EMS BRON FRA 1:41:92 404
16 MOURIER Jade 2004 ND VILLEFRANCHE-EN-BEAUJOLAIS FRA 1:44:06 367
17 BAJARD Janelle 2003 TRITON CLUB BELLEVILLE FRA 1:44:74 356
18 VERMANDE Morgane 2003 LYON NATATION FRA 1:44:76 355
19 GAILLARD Laure 2004 RILLIEUX NATATION FRA 1:45:18 349
20 SAHLI Ines 2003 RILLIEUX NATATION FRA 1:45:27 347
21 LEPINASSE Agathe 2003 LYON NATATION FRA 1:45:60 342
22 PILLOT Garance 2004 RILLIEUX NATATION FRA 1:46:52 327
23 VAUDAN Lea 2003 AQUATIC CLUB FIDESIEN FRA 1:46:92 321
24 QUENTIN Charline 2003 LYON NATATION FRA 1:48:02 304
25 BRUSSOZ Dina 2003 PAYS VIENNOIS NATATION FRA 1:48:04 304
26 NASRI Tahnia 2003 LYON NATATION FRA 1:48:16 302
27 BERLET Floriane 2003 EMS BRON FRA 1:48:38 298
28 MAR Clarisse 2003 EMS BRON FRA 1:50:10 273
29 HAFFAR Emma 2004 AC DÉCINES FRA 1:51:40 255
30 ROSSIGNOL Tabatha 2004 RILLIEUX NATATION FRA 1:51:56 252
31 BEN AMARA Myriam 2003 LYON NATATION FRA 1:51:63 251
32 MARQUIER-GOTTELAND Apolline 2003 LYON NATATION FRA 1:51:90 248
33 MAES Joséphine 2003 LYON NATATION FRA 1:53:50 226
34 MARTIN Liza 2003 RILLIEUX NATATION FRA 1:54:45 214
35 BENGRINE Aicha 2004 VAULX-EN-VELIN NATATION FRA 1:54:63 212
36 CARREZ Lyse 2003 RILLIEUX NATATION FRA 1:56:68 187
37 PESCHEUX Garance 2003 LYON NATATION FRA 1:58:25 168
38 DEBBAH Amel 2003 AQUATIC CLUB FIDESIEN FRA 1:58:27 168
39 LEVEUGLE Inès 2003 LYON NATATION FRA 1:59:71 152
40 BENGRINE Iman 2003 VAULX-EN-VELIN NATATION FRA 1:59:74 152
41 BONZI Candice 2003 LYON NATATION FRA 2:00:48 144
42 TUGAUT Eve 2003 AS CALUIRE FRA 2:00:96 139
43 DUCROS Charlotte 2003 LYON NATATION FRA 2:01:22 136
44 CHAMPIN Charlène 2003 EMS BRON FRA 2:01:84 130
45 THEVENARD Erine 2004 LYON NATATION FRA 2:04:19 108
46 CHRONOPOULOS Jacqueline 2004 ND VILLEFRANCHE-EN-BEAUJOLAIS FRA 2:05:96 92
47 MADELINE Charlotte 2004 LYON NATATION FRA 2:07:25 82
48 FAURE Anaïs 2004 LYON NATATION FRA 2:08:72 71
49 HEINRICH Amelie 2003 AS CALUIRE FRA 2:09:43 66
50 BEN AMARA Inès 2005 LYON NATATION FRA 2:10:27 60
51 DUGELAY Alice 2003 ND VILLEFRANCHE-EN-BEAUJOLAIS FRA 2:10:93 55
52 LOBRY Tiffaine 2004 ND VILLEFRANCHE-EN-BEAUJOLAIS FRA 2:12:21 47
53 FEHLMANN Shelsi 2003 LYON NATATION FRA 2:14:37 35
54 TRIA Nawal 2004 LYON NATATION FRA 2:15:48 30
55 SPIE Ludmilla 2004 ND VILLEFRANCHE-EN-BEAUJOLAIS FRA 2:17:37 22
56 GADACHA Maïssa 2003 RILLIEUX NATATION FRA 2:17:76 20
57 MATHIEU Camille 2003 LYON NATATION FRA 2:20:30 11

Hors-Concours

Nom Année Club Pays Temps Points Niv.
1 FERRI Elsa 2003 CHASSIEU NATATION FRA 1:29:16 658
2 CHOTARD Jade 2003 CHASSIEU NATATION FRA 1:34:22 550
3 BAUMSTARK Lilou 2003 CHASSIEU NATATION FRA 1:41:23 416
4 PINTO DE SILVA Marie 2003 AS CALUIRE FRA 1:50:12 273
5 REBEL Marie-Camille 2003 PAYS VIENNOIS NATATION FRA 1:50:34 270
6 FEVRIER Marie-Fleur 2003 EMS BRON FRA 1:51:73 250
7 WAYMEL Ines 2004 LYON NATATION FRA 1:52:36 242
8 DAUCHY Marie 2003 CHASSIEU NATATION FRA 1:53:70 224
9 GERVASONI Laetitia 2003 EMS BRON FRA 1:56:27 191
10 VERHULST Isaline 2003 EMS BRON FRA 1:57:97 171
11 CAMARA Lena 2004 VAULX-EN-VELIN NATATION FRA 1:58:34 167
12 EL GUERFI Feyza 2003 EMS BRON FRA 2:00:05 149
13 POYAU Amandine 2003 EMS BRON FRA 2:00:54 143
14 RAVALOHERY Irina 2005 VAULX-EN-VELIN NATATION FRA 2:01:68 132
15 BENADDA Jenna 2004 VAULX-EN-VELIN NATATION FRA 2:05:13 99
16 BOUZERZOUR Zahra 2003 EMS BRON FRA 2:05:62 95
17 NGUYEN Léa 2003 EMS BRON FRA 2:07:40 81
18 LARKECHE Fériel 2003 LYON NATATION FRA 2:10:55 58
19 SABY Louise 2003 AS CALUIRE FRA 2:13:92 38
20 DE CHARENTENAY Albane 2003 AS CALUIRE FRA - Disq.
21 FLAHAUT Elora 2004 ND VILLEFRANCHE-EN-BEAUJOLAIS FRA - Disq.